createdAt,value
2022-11-20T00:00:17.968Z,86.29
2022-11-20T00:02:44.674Z,87.16
2022-11-20T00:05:11.401Z,87.92
2022-11-20T00:07:38.178Z,88.83
2022-11-20T00:10:05.240Z,89.03
2022-11-20T00:12:32.331Z,88.48
2022-11-20T00:14:59.028Z,87.76
2022-11-20T00:17:25.762Z,87.80
2022-11-20T00:19:52.389Z,87.70
2022-11-20T00:22:19.067Z,88.25
2022-11-20T00:24:45.707Z,88.39
2022-11-20T00:27:12.368Z,88.23
2022-11-20T00:29:39.219Z,89.31
2022-11-20T00:32:05.959Z,88.52
2022-11-20T00:34:32.631Z,89.04
2022-11-20T00:36:59.282Z,88.36
2022-11-20T00:39:25.944Z,88.35
2022-11-20T00:41:52.611Z,88.52
2022-11-20T00:44:19.324Z,88.08
2022-11-20T00:46:45.964Z,89.10
2022-11-20T00:49:12.663Z,89.46
2022-11-20T00:51:39.429Z,89.04
2022-11-20T00:54:06.064Z,89.14
2022-11-20T00:56:32.753Z,89.21
2022-11-20T00:59:01.257Z,89.32
2022-11-20T01:01:30.231Z,89.46
2022-11-20T01:04:00.315Z,89.81
2022-11-20T01:06:28.137Z,89.73
2022-11-20T01:08:57.745Z,89.67
2022-11-20T01:11:27.656Z,90.02
2022-11-20T01:13:55.407Z,90.40
2022-11-20T01:16:24.772Z,89.82
2022-11-20T01:18:53.647Z,88.64
2022-11-20T01:21:25.839Z,89.57
2022-11-20T01:23:53.014Z,88.99
2022-11-20T01:26:22.465Z,89.92
2022-11-20T01:28:49.271Z,89.42
2022-11-20T01:31:22.845Z,89.17
2022-11-20T01:33:51.455Z,89.72
2022-11-20T01:36:19.331Z,89.80
2022-11-20T01:38:46.215Z,89.12
2022-11-20T01:41:35.123Z,89.20
2022-11-20T01:44:03.821Z,89.03
2022-11-20T01:46:34.670Z,89.41
2022-11-20T01:49:17.847Z,90.20
2022-11-20T01:52:00.873Z,89.06
2022-11-20T01:54:34.612Z,88.70
2022-11-20T01:57:01.821Z,88.66
2022-11-20T01:59:29.461Z,88.76
2022-11-20T02:01:56.260Z,89.16
2022-11-20T02:04:23.731Z,88.40
2022-11-20T02:06:55.027Z,88.95
2022-11-20T02:09:21.781Z,90.16
2022-11-20T02:11:48.526Z,90.51
2022-11-20T02:14:15.715Z,90.85
2022-11-20T02:16:46.695Z,91.65
2022-11-20T02:19:29.188Z,91.11
2022-11-20T02:22:15.579Z,90.90
2022-11-20T02:24:43.456Z,89.96
2022-11-20T02:27:13.461Z,90.54
2022-11-20T02:29:52.183Z,90.15
2022-11-20T02:32:21.814Z,91.07
2022-11-20T02:34:48.573Z,91.13
2022-11-20T02:37:15.637Z,91.90
2022-11-20T02:39:42.684Z,91.70
2022-11-20T02:42:09.479Z,90.76
2022-11-20T02:44:36.326Z,90.84
2022-11-20T02:47:03.142Z,90.57
2022-11-20T02:49:29.828Z,90.79
2022-11-20T02:51:56.534Z,90.50
2022-11-20T02:54:23.974Z,90.75
2022-11-20T02:56:50.922Z,90.74
2022-11-20T02:59:17.817Z,89.80
2022-11-20T03:01:44.666Z,90.18
2022-11-20T03:04:11.478Z,90.34
2022-11-20T03:06:38.275Z,90.16
2022-11-20T03:09:05.128Z,90.04
2022-11-20T03:11:32.004Z,89.17
2022-11-20T03:13:58.846Z,89.25
2022-11-20T03:16:25.605Z,89.32
2022-11-20T03:18:53.644Z,89.08
2022-11-20T03:21:20.463Z,89.31
2022-11-20T03:23:47.409Z,89.67
2022-11-20T03:26:19.801Z,89.25
2022-11-20T03:28:54.432Z,89.87
2022-11-20T03:31:24.038Z,90.14
2022-11-20T03:33:51.278Z,89.48
2022-11-20T03:36:19.424Z,89.57
2022-11-20T03:38:46.575Z,90.04
2022-11-20T03:41:22.682Z,90.70
2022-11-20T03:43:50.674Z,90.33
2022-11-20T03:46:17.863Z,90.19
2022-11-20T03:48:50.163Z,90.67
2022-11-20T03:51:27.152Z,89.45
2022-11-20T03:53:55.848Z,90.16
2022-11-20T03:56:27.874Z,90.14
2022-11-20T03:58:54.629Z,89.94
2022-11-20T04:01:23.265Z,91.00
2022-11-20T04:03:50.471Z,90.72
2022-11-20T04:06:19.848Z,90.33
2022-11-20T04:08:50.996Z,90.68
2022-11-20T04:11:27.819Z,90.88
2022-11-20T04:13:56.549Z,91.25
2022-11-20T04:16:24.719Z,91.08
2022-11-20T04:18:55.819Z,92.29
2022-11-20T04:21:23.276Z,91.67
2022-11-20T04:23:52.023Z,91.86
2022-11-20T04:26:18.692Z,91.08
2022-11-20T04:28:45.342Z,90.52
2022-11-20T04:31:15.106Z,91.01
2022-11-20T04:33:41.864Z,91.15
2022-11-20T04:36:19.722Z,91.84
2022-11-20T04:38:46.806Z,92.60
2022-11-20T04:41:18.057Z,93.09
2022-11-20T04:43:52.217Z,92.82
2022-11-20T04:46:20.528Z,93.15
2022-11-20T04:48:48.208Z,92.95
2022-11-20T04:51:14.870Z,92.88
2022-11-20T04:53:41.551Z,93.24
2022-11-20T04:56:10.065Z,93.05
2022-11-20T04:58:36.888Z,92.92
2022-11-20T05:01:05.082Z,92.41
2022-11-20T05:03:31.961Z,92.26
2022-11-20T05:06:03.495Z,92.87
2022-11-20T05:08:31.188Z,93.23
2022-11-20T05:11:05.789Z,92.65
2022-11-20T05:13:32.739Z,92.89
2022-11-20T05:16:08.003Z,92.82
2022-11-20T05:18:35.575Z,92.56
2022-11-20T05:21:02.419Z,93.07
2022-11-20T05:23:30.392Z,93.79
2022-11-20T05:25:59.433Z,93.66
2022-11-20T05:28:27.617Z,93.63
2022-11-20T05:30:54.384Z,93.60
2022-11-20T05:33:21.306Z,94.04
2022-11-20T05:35:48.998Z,93.71
2022-11-20T05:38:15.934Z,93.78
2022-11-20T05:40:42.571Z,93.93
2022-11-20T05:43:09.307Z,94.26
2022-11-20T05:45:36.148Z,94.68
2022-11-20T05:48:02.914Z,93.91
2022-11-20T05:50:29.596Z,94.07
2022-11-20T05:52:59.381Z,93.74
2022-11-20T05:55:26.520Z,94.49
2022-11-20T05:57:54.951Z,94.39
2022-11-20T06:00:21.741Z,94.88
2022-11-20T06:02:48.605Z,94.81
2022-11-20T06:05:15.392Z,95.01
2022-11-20T06:07:42.291Z,94.94
2022-11-20T06:10:09.353Z,94.88
2022-11-20T06:12:36.032Z,94.81
2022-11-20T06:15:02.681Z,94.53
2022-11-20T06:17:29.404Z,94.28
2022-11-20T06:19:56.065Z,94.88
2022-11-20T06:22:22.796Z,94.72
2022-11-20T06:24:49.534Z,94.83
2022-11-20T06:27:16.753Z,95.07
2022-11-20T06:29:43.439Z,95.09
2022-11-20T06:32:10.120Z,95.09
2022-11-20T06:34:36.809Z,95.30
2022-11-20T06:37:03.619Z,96.08
2022-11-20T06:39:30.497Z,95.62
2022-11-20T06:41:59.270Z,96.51
2022-11-20T06:44:26.467Z,96.25
2022-11-20T06:46:53.120Z,95.44
2022-11-20T06:49:20.090Z,95.79
2022-11-20T06:51:47.020Z,95.71
2022-11-20T06:54:13.851Z,95.60
2022-11-20T06:56:40.617Z,96.31
2022-11-20T06:59:08.046Z,95.87
2022-11-20T07:01:35.878Z,95.74
2022-11-20T07:04:03.997Z,95.68
2022-11-20T07:06:31.009Z,95.59
2022-11-20T07:08:57.916Z,95.91
2022-11-20T07:11:24.760Z,95.96
2022-11-20T07:13:51.652Z,95.93
2022-11-20T07:16:18.356Z,96.31
2022-11-20T07:18:50.128Z,96.19
2022-11-20T07:21:17.643Z,96.09
2022-11-20T07:23:44.511Z,96.26
2022-11-20T07:26:12.045Z,96.67
2022-11-20T07:28:39.276Z,96.82
2022-11-20T07:31:07.770Z,96.71
2022-11-20T07:33:34.724Z,96.93
2022-11-20T07:36:01.568Z,96.93
2022-11-20T07:38:28.468Z,96.83
2022-11-20T07:40:56.716Z,96.75
2022-11-20T07:43:23.404Z,96.66
2022-11-20T07:45:50.112Z,97.12
2022-11-20T07:48:16.886Z,97.01
2022-11-20T07:50:43.557Z,96.97
2022-11-20T07:53:10.303Z,96.97
2022-11-20T07:55:37.091Z,97.34
2022-11-20T07:58:03.756Z,97.41
2022-11-20T08:00:30.499Z,97.24
2022-11-20T08:02:57.251Z,97.23
2022-11-20T08:05:24.284Z,96.76
2022-11-20T08:07:50.982Z,96.53
2022-11-20T08:10:17.999Z,96.53
2022-11-20T08:13:08.156Z,96.43
2022-11-20T08:15:35.174Z,96.76
2022-11-20T08:18:30.570Z,96.65
2022-11-20T08:20:58.782Z,96.08
2022-11-20T08:23:25.474Z,96.04
2022-11-20T08:25:52.392Z,96.36
2022-11-20T08:28:21.681Z,96.14
2022-11-20T08:30:50.761Z,96.17
2022-11-20T08:33:18.468Z,95.98
2022-11-20T08:35:45.265Z,96.94
2022-11-20T08:38:11.935Z,97.20
2022-11-20T08:40:38.704Z,96.96
2022-11-20T08:43:05.474Z,96.42
2022-11-20T08:45:34.742Z,96.50
2022-11-20T08:48:05.039Z,96.37
2022-11-20T08:50:32.997Z,96.73
2022-11-20T08:53:06.778Z,96.75
2022-11-20T08:55:33.541Z,96.44
2022-11-20T08:58:04.677Z,95.82
2022-11-20T09:00:31.441Z,96.20
2022-11-20T09:02:59.541Z,97.33
2022-11-20T09:05:26.246Z,100.00
2022-11-20T09:07:52.989Z,97.90
2022-11-20T09:10:25.568Z,96.91
2022-11-20T09:12:53.154Z,97.15
2022-11-20T09:15:20.187Z,96.82
2022-11-20T09:17:57.810Z,97.95
2022-11-20T09:20:24.956Z,97.11
2022-11-20T09:22:51.591Z,98.07
2022-11-20T09:25:18.539Z,98.93
2022-11-20T09:27:46.961Z,99.97
2022-11-20T09:30:17.078Z,98.87
2022-11-20T09:32:44.127Z,100.00
2022-11-20T09:35:11.580Z,98.57
2022-11-20T09:37:38.705Z,98.56
2022-11-20T09:40:05.980Z,98.36
2022-11-20T09:42:42.790Z,98.24
2022-11-20T09:45:37.303Z,97.99
2022-11-20T09:48:19.760Z,98.65
2022-11-20T09:50:57.312Z,98.62
2022-11-20T09:54:01.291Z,97.71
2022-11-20T09:56:27.852Z,97.66
2022-11-20T09:59:01.015Z,97.41
2022-11-20T10:01:31.501Z,97.75
2022-11-20T10:04:07.214Z,98.29
2022-11-20T10:06:38.542Z,97.48
2022-11-20T10:09:11.228Z,97.89
2022-11-20T10:12:04.093Z,98.86
2022-11-20T10:14:52.194Z,97.79
2022-11-20T10:17:54.321Z,99.52
2022-11-20T10:20:31.808Z,98.88
2022-11-20T10:23:25.367Z,99.43
2022-11-20T10:26:03.193Z,100.00
2022-11-20T10:28:52.622Z,99.11
2022-11-20T10:31:32.868Z,99.12
2022-11-20T10:34:12.164Z,98.55
2022-11-20T10:36:47.077Z,100.00
2022-11-20T10:39:47.406Z,98.73
2022-11-20T10:42:17.381Z,98.43
2022-11-20T10:45:05.841Z,98.33
2022-11-20T10:47:33.562Z,98.01
2022-11-20T10:50:05.601Z,98.41
2022-11-20T10:52:50.581Z,99.77
2022-11-20T10:55:29.157Z,98.93
2022-11-20T10:58:02.749Z,98.87
2022-11-20T11:00:32.157Z,98.38
2022-11-20T11:03:03.802Z,98.60
2022-11-20T11:05:38.943Z,98.02
2022-11-20T11:08:11.612Z,98.18
2022-11-20T11:10:57.185Z,98.17
2022-11-20T11:13:26.055Z,98.46
2022-11-20T11:15:53.455Z,98.41
2022-11-20T11:18:31.544Z,98.25
2022-11-20T11:21:00.381Z,98.84
2022-11-20T11:23:33.296Z,98.02
2022-11-20T11:26:02.204Z,99.41
2022-11-20T11:28:29.351Z,98.81
2022-11-20T11:30:56.823Z,100.00
2022-11-20T11:33:28.184Z,99.01
2022-11-20T11:36:05.680Z,98.93
2022-11-20T11:38:39.509Z,98.88
2022-11-20T11:41:08.501Z,99.12
2022-11-20T11:43:55.786Z,98.66
2022-11-20T11:46:31.748Z,99.40
2022-11-20T11:49:17.645Z,98.79
2022-11-20T11:52:09.597Z,100.00
2022-11-20T11:54:38.366Z,100.00
2022-11-20T11:57:43.426Z,99.09
2022-11-20T12:00:13.419Z,98.51
2022-11-20T12:02:51.504Z,100.00
2022-11-20T12:05:27.234Z,100.00
2022-11-20T12:08:00.104Z,100.00
2022-11-20T12:10:50.340Z,98.34
2022-11-20T12:13:34.297Z,98.85
2022-11-20T12:16:02.123Z,99.32
2022-11-20T12:18:29.682Z,99.04
2022-11-20T12:21:25.749Z,98.82
2022-11-20T12:24:14.285Z,98.80
2022-11-20T12:26:53.723Z,99.79
2022-11-20T12:29:42.215Z,98.95
2022-11-20T12:32:30.013Z,98.95
2022-11-20T12:35:33.217Z,98.72
2022-11-20T12:38:20.930Z,98.87
2022-11-20T12:40:53.747Z,98.57
2022-11-20T12:43:41.338Z,98.62
2022-11-20T12:46:30.742Z,98.86
2022-11-20T12:49:10.483Z,99.25
2022-11-20T12:51:51.541Z,98.84
2022-11-20T12:54:34.721Z,98.95
2022-11-20T12:57:22.274Z,99.08
2022-11-20T13:00:08.207Z,99.04
2022-11-20T13:03:08.779Z,98.96
2022-11-20T13:05:38.152Z,98.58
2022-11-20T13:08:05.231Z,99.00
2022-11-20T13:10:34.806Z,98.73
2022-11-20T13:13:09.848Z,98.41
2022-11-20T13:15:59.347Z,99.24
2022-11-20T13:18:26.361Z,98.63
2022-11-20T13:20:53.318Z,98.55
2022-11-20T13:23:28.498Z,98.22
2022-11-20T13:26:21.956Z,98.12
2022-11-20T13:29:00.279Z,97.84
2022-11-20T13:31:32.639Z,97.62
2022-11-20T13:34:01.250Z,97.80
2022-11-20T13:36:29.846Z,97.51
2022-11-20T13:38:57.035Z,97.32
2022-11-20T13:41:32.088Z,96.98
2022-11-20T13:44:16.521Z,96.72
2022-11-20T13:46:47.852Z,96.92
2022-11-20T13:49:22.707Z,96.73
2022-11-20T13:51:51.637Z,96.64
2022-11-20T13:54:48.483Z,96.31
2022-11-20T13:57:29.290Z,96.34
2022-11-20T13:59:59.566Z,96.41
2022-11-20T14:02:28.742Z,96.21
2022-11-20T14:04:58.441Z,96.16
2022-11-20T14:07:32.783Z,95.66
2022-11-20T14:09:59.486Z,95.62
2022-11-20T14:12:32.127Z,95.21
2022-11-20T14:14:59.104Z,95.12
2022-11-20T14:17:35.230Z,93.68
2022-11-20T14:20:07.843Z,93.86
2022-11-20T14:22:34.564Z,93.71
2022-11-20T14:25:19.189Z,88.77
2022-11-20T14:27:49.960Z,91.35
2022-11-20T14:30:18.682Z,91.87
2022-11-20T14:32:46.412Z,92.47
2022-11-20T14:35:23.068Z,91.98
2022-11-20T14:37:49.758Z,92.54
2022-11-20T14:40:27.447Z,91.73
2022-11-20T14:42:54.491Z,90.48
2022-11-20T14:45:22.508Z,91.14
2022-11-20T14:47:49.843Z,91.28
2022-11-20T14:50:30.503Z,91.08
2022-11-20T14:52:59.478Z,91.71
2022-11-20T14:55:32.362Z,91.78
2022-11-20T14:58:04.425Z,91.92
2022-11-20T15:00:32.109Z,92.00
2022-11-20T15:02:59.357Z,92.35
2022-11-20T15:05:45.703Z,92.45
2022-11-20T15:08:13.279Z,92.73
2022-11-20T15:10:40.166Z,93.04
2022-11-20T15:13:13.214Z,92.75
2022-11-20T15:15:45.600Z,93.19
2022-11-20T15:18:20.820Z,92.75
2022-11-20T15:20:47.849Z,92.47
2022-11-20T15:23:16.832Z,92.90
2022-11-20T15:25:43.657Z,93.36
2022-11-20T15:28:19.440Z,93.22
2022-11-20T15:30:47.504Z,93.56
2022-11-20T15:33:14.914Z,93.61
2022-11-20T15:35:41.677Z,93.78
2022-11-20T15:40:34.757Z,93.65
2022-11-20T15:42:32.615Z,93.81
2022-11-20T15:44:59.393Z,92.85
2022-11-20T15:47:29.249Z,93.03
2022-11-20T15:49:55.957Z,92.91
2022-11-20T15:52:22.874Z,92.88
2022-11-20T15:54:49.557Z,92.80
2022-11-20T15:57:16.336Z,92.61
2022-11-20T15:59:43.202Z,92.82
2022-11-20T16:02:17.525Z,92.73
2022-11-20T16:04:45.774Z,92.79
2022-11-20T16:07:12.592Z,92.63
2022-11-20T16:09:39.291Z,92.74
2022-11-20T16:12:06.348Z,92.79
2022-11-20T16:14:51.673Z,92.90
2022-11-20T16:17:38.328Z,92.73
2022-11-20T16:20:05.437Z,93.06
2022-11-20T16:22:32.127Z,93.24
2022-11-20T16:24:58.805Z,92.77
2022-11-20T16:27:25.514Z,92.61
2022-11-20T16:29:52.252Z,92.43
2022-11-20T16:32:18.895Z,92.08
2022-11-20T16:34:45.612Z,92.32
2022-11-20T16:37:12.359Z,91.98
2022-11-20T16:39:39.160Z,91.95
2022-11-20T16:42:06.088Z,91.86
2022-11-20T16:44:32.793Z,91.51
2022-11-20T16:46:59.586Z,91.32
2022-11-20T16:49:26.292Z,91.39
2022-11-20T16:51:53.191Z,91.37
2022-11-20T16:54:21.427Z,91.55
2022-11-20T16:56:48.318Z,92.23
2022-11-20T16:59:15.171Z,92.29
2022-11-20T17:01:43.163Z,92.21
2022-11-20T17:04:10.232Z,92.28
2022-11-20T17:06:40.449Z,91.86
2022-11-20T17:09:10.681Z,92.23
2022-11-20T17:11:37.440Z,91.60
2022-11-20T17:14:07.352Z,91.73
2022-11-20T17:16:35.049Z,91.69
2022-11-20T17:19:03.539Z,91.67
2022-11-20T17:21:36.220Z,91.85
2022-11-20T17:24:04.818Z,91.87
2022-11-20T17:26:32.014Z,91.70
2022-11-20T17:29:01.094Z,91.62
2022-11-20T17:31:29.479Z,91.40
2022-11-20T17:33:56.583Z,91.67
2022-11-20T17:36:23.258Z,91.66
2022-11-20T17:38:50.026Z,91.47
2022-11-20T17:41:22.488Z,91.17
2022-11-20T17:43:49.849Z,91.36
2022-11-20T17:46:18.877Z,91.21
2022-11-20T17:48:46.246Z,91.40
2022-11-20T17:51:15.452Z,91.09
2022-11-20T17:53:44.528Z,91.12
2022-11-20T17:56:29.792Z,91.20
2022-11-20T17:58:56.814Z,91.34
2022-11-20T18:01:24.116Z,91.30
2022-11-20T18:03:50.922Z,91.13
2022-11-20T18:06:20.011Z,91.09
2022-11-20T18:08:47.386Z,91.11
2022-11-20T18:11:25.277Z,90.78
2022-11-20T18:14:12.672Z,91.28
2022-11-20T18:16:44.104Z,91.05
2022-11-20T18:19:12.132Z,91.34
2022-11-20T18:21:38.945Z,91.42
2022-11-20T18:24:08.689Z,91.85
2022-11-20T18:26:38.786Z,91.76
2022-11-20T18:29:09.838Z,92.03
2022-11-20T18:31:36.633Z,92.14
2022-11-20T18:34:03.603Z,92.19
2022-11-20T18:36:31.149Z,92.41
2022-11-20T18:38:59.943Z,92.23
2022-11-20T18:41:47.033Z,92.66
2022-11-20T18:44:40.399Z,93.61
2022-11-20T18:47:14.065Z,93.32
2022-11-20T18:49:54.654Z,93.50
2022-11-20T18:52:29.600Z,93.88
2022-11-20T18:54:56.740Z,93.67
2022-11-20T18:57:25.837Z,93.93
2022-11-20T18:59:56.372Z,93.38
2022-11-20T19:02:23.320Z,93.30
2022-11-20T19:04:50.132Z,93.10
2022-11-20T19:07:17.216Z,93.66
2022-11-20T19:09:47.745Z,93.55
2022-11-20T19:12:14.584Z,93.31
2022-11-20T19:14:41.300Z,92.99
2022-11-20T19:17:10.262Z,93.11
2022-11-20T19:19:37.211Z,92.88
2022-11-20T19:22:04.407Z,92.99
2022-11-20T19:24:31.380Z,92.61
2022-11-20T19:26:58.201Z,92.72
2022-11-20T19:29:25.608Z,92.71
2022-11-20T19:31:53.214Z,93.44
2022-11-20T19:34:20.033Z,93.48
2022-11-20T19:36:46.766Z,93.30
2022-11-20T19:39:14.786Z,93.42
2022-11-20T19:41:41.792Z,94.30
2022-11-20T19:44:12.447Z,93.66
2022-11-20T19:46:39.494Z,93.71
2022-11-20T19:49:10.054Z,93.96
2022-11-20T19:51:39.353Z,93.78
2022-11-20T19:54:06.472Z,94.03
2022-11-20T19:56:33.960Z,93.96
2022-11-20T19:59:00.748Z,94.27
2022-11-20T20:01:29.779Z,94.00
2022-11-20T20:04:01.258Z,93.95
2022-11-20T20:06:28.652Z,93.92
2022-11-20T20:08:57.151Z,94.28
2022-11-20T20:11:25.827Z,94.09
2022-11-20T20:13:53.448Z,93.25
2022-11-20T20:16:21.759Z,93.44
2022-11-20T20:18:48.510Z,93.77
2022-11-20T20:21:18.650Z,93.27
2022-11-20T20:23:45.760Z,93.09
2022-11-20T20:26:12.454Z,93.40
2022-11-20T20:28:39.261Z,93.51
2022-11-20T20:31:10.926Z,93.45
2022-11-20T20:33:38.692Z,93.83
2022-11-20T20:36:06.454Z,93.90
2022-11-20T20:38:33.380Z,93.75
2022-11-20T20:41:00.280Z,93.47
2022-11-20T20:43:27.577Z,93.17
2022-11-20T20:45:55.100Z,93.48
2022-11-20T20:48:23.161Z,93.29
2022-11-20T20:50:54.853Z,93.07
2022-11-20T20:53:21.830Z,93.48
2022-11-20T20:55:58.277Z,93.44
2022-11-20T20:58:25.148Z,93.65
2022-11-20T21:00:52.166Z,93.74
2022-11-20T21:03:19.907Z,93.37
2022-11-20T21:05:47.131Z,93.13
2022-11-20T21:08:22.739Z,93.31
2022-11-20T21:10:49.836Z,93.52
2022-11-20T21:13:17.085Z,93.43
2022-11-20T21:15:47.241Z,93.46
2022-11-20T21:18:15.342Z,93.08
2022-11-20T21:21:01.337Z,93.21
2022-11-20T21:23:28.169Z,93.19
2022-11-20T21:25:54.936Z,93.54
2022-11-20T21:28:21.591Z,93.49
2022-11-20T21:30:48.341Z,93.75
2022-11-20T21:33:16.321Z,93.46
2022-11-20T21:35:43.011Z,93.57
2022-11-20T21:38:09.671Z,93.29
2022-11-20T21:40:36.490Z,93.12
2022-11-20T21:43:03.225Z,92.98
2022-11-20T21:45:29.971Z,93.05
2022-11-20T21:47:56.713Z,92.95
2022-11-20T21:50:23.435Z,93.04
2022-11-20T21:52:50.328Z,93.01
2022-11-20T21:55:17.023Z,93.20
2022-11-20T21:57:43.769Z,92.94
2022-11-20T22:00:12.181Z,93.02
2022-11-20T22:02:40.312Z,93.09
2022-11-20T22:05:08.004Z,92.97
2022-11-20T22:07:35.226Z,93.10
2022-11-20T22:10:02.065Z,93.06
2022-11-20T22:12:28.752Z,92.95
2022-11-20T22:14:55.469Z,93.12
2022-11-20T22:17:42.237Z,93.01
2022-11-20T22:20:09.827Z,92.92
2022-11-20T22:22:36.533Z,92.79
2022-11-20T22:25:03.685Z,92.88
2022-11-20T22:27:30.508Z,93.13
2022-11-20T22:29:57.201Z,92.77
2022-11-20T22:32:23.874Z,92.85
2022-11-20T22:34:50.670Z,92.54
2022-11-20T22:37:17.417Z,92.82
2022-11-20T22:39:44.246Z,92.79
2022-11-20T22:42:10.874Z,92.85
2022-11-20T22:44:37.536Z,92.89
2022-11-20T22:47:08.674Z,92.56
2022-11-20T22:49:37.903Z,92.57
2022-11-20T22:52:04.763Z,92.66
2022-11-20T22:54:31.439Z,92.67
2022-11-20T22:56:58.124Z,92.50
2022-11-20T22:59:24.802Z,92.26
2022-11-20T23:01:51.464Z,92.25
2022-11-20T23:04:18.186Z,92.28
2022-11-20T23:06:44.804Z,92.22
2022-11-20T23:09:12.887Z,92.06
2022-11-20T23:11:39.883Z,92.04
2022-11-20T23:14:15.947Z,91.90
2022-11-20T23:16:42.697Z,91.84
2022-11-20T23:19:12.032Z,91.84
2022-11-20T23:21:41.113Z,91.67
2022-11-20T23:24:08.835Z,91.56
2022-11-20T23:26:37.728Z,91.61
2022-11-20T23:29:05.302Z,91.57
2022-11-20T23:31:33.592Z,91.95
2022-11-20T23:34:00.458Z,91.70
2022-11-20T23:36:27.352Z,91.49
2022-11-20T23:38:54.057Z,91.47
2022-11-20T23:41:20.760Z,91.47
2022-11-20T23:43:47.608Z,91.44
2022-11-20T23:46:16.656Z,91.45
2022-11-20T23:48:45.341Z,91.52
2022-11-20T23:51:12.792Z,91.46
2022-11-20T23:53:39.790Z,91.62
2022-11-20T23:56:06.697Z,91.25
2022-11-20T23:58:38.188Z,91.48
